Time;durP1;ratioP1;P1;durP2;ratioP2;P2;SDS_P1;SDS_P2;PMS_P1;PMS_P2;Temp;Humidity;BMP_temperature;BMP_pressure;BME280_temperature;BME280_humidity;BME280_pressure;Samples;Min_cycle;Max_cycle;Signal;HPM_P1;HPM_P2
2023/07/22 00:00:46;;;;;;;;;8.00;6.00;;;;;;;;5049856;28;9397;-85
2023/07/22 00:03:15;;;;;;;;;7.33;5.00;;;;;;;;5049940;28;9317;-86
2023/07/22 00:05:45;;;;;;;;;8.75;8.00;;;;;;;;5050044;28;9312;-85
2023/07/22 00:08:12;;;;;;;;;6.75;6.75;;;;;;;;5050623;28;9475;-85
2023/07/22 00:10:48;;;;;;;;;10.75;7.50;;;;;;;;5050251;28;9482;-88
2023/07/22 00:13:18;;;;;;;;;8.75;7.00;;;;;;;;5051531;28;9619;-89
2023/07/22 00:15:45;;;;;;;;;8.75;8.75;;;;;;;;5053152;28;9542;-88
2023/07/22 00:18:16;;;;;;;;;6.00;5.75;;;;;;;;5052336;28;9544;-89
2023/07/22 00:20:45;;;;;;;;;7.75;7.75;;;;;;;;5051598;28;9832;-91
2023/07/22 00:23:12;;;;;;;;;5.25;5.25;;;;;;;;5050944;28;9766;-90
2023/07/22 00:25:40;;;;;;;;;8.25;8.25;;;;;;;;5052676;28;9630;-88
2023/07/22 00:28:07;;;;;;;;;4.50;4.50;;;;;;;;5053227;28;9699;-89
2023/07/22 00:30:34;;;;;;;;;2.00;2.00;;;;;;;;5053362;28;9553;-85
2023/07/22 00:33:02;;;;;;;;;8.00;6.50;;;;;;;;5052464;28;9739;-84
2023/07/22 00:35:29;;;;;;;;;7.75;7.75;;;;;;;;5053329;28;9612;-86
2023/07/22 00:37:58;;;;;;;;;9.50;8.00;;;;;;;;5053698;28;9705;-90
2023/07/22 00:40:27;;;;;;;;;7.25;6.75;;;;;;;;5053842;28;9595;-91
2023/07/22 00:42:55;;;;;;;;;7.00;5.00;;;;;;;;5054480;28;9807;-89
2023/07/22 00:45:23;;;;;;;;;5.00;5.00;;;;;;;;5054055;28;9723;-88
2023/07/22 00:47:51;;;;;;;;;9.50;6.25;;;;;;;;5057746;28;9814;-90
2023/07/22 00:50:18;;;;;;;;;4.25;4.25;;;;;;;;5057509;28;9860;-87
2023/07/22 00:52:47;;;;;;;;;8.25;6.75;;;;;;;;5057322;28;9758;-87
2023/07/22 00:55:16;;;;;;;;;7.75;7.75;;;;;;;;5057705;28;9863;-88
2023/07/22 00:57:43;;;;;;;;;7.50;7.50;;;;;;;;5057732;28;10050;-88
2023/07/22 01:00:16;;;;;;;;;9.25;7.50;;;;;;;;5055696;28;10127;-88
2023/07/22 01:02:44;;;;;;;;;6.50;6.50;;;;;;;;5053844;28;10103;-85
2023/07/22 01:05:12;;;;;;;;;6.25;5.75;;;;;;;;5052989;28;10237;-85
2023/07/22 01:07:39;;;;;;;;;5.50;5.50;;;;;;;;5052776;28;10016;-85
2023/07/22 01:10:09;;;;;;;;;7.75;7.75;;;;;;;;5052771;28;10106;-85
2023/07/22 01:12:38;;;;;;;;;8.25;7.00;;;;;;;;5052680;28;10219;-86
2023/07/22 01:15:07;;;;;;;;;8.00;8.00;;;;;;;;5052536;28;10127;-87
2023/07/22 01:17:36;;;;;;;;;5.50;5.25;;;;;;;;5052912;28;10098;-86
2023/07/22 01:20:04;;;;;;;;;5.50;5.50;;;;;;;;5052498;28;10177;-85
2023/07/22 01:22:33;;;;;;;;;6.00;6.00;;;;;;;;5052963;28;10218;-86
2023/07/22 01:25:02;;;;;;;;;8.00;8.00;;;;;;;;5052661;28;10304;-87
2023/07/22 01:27:32;;;;;;;;;6.50;6.50;;;;;;;;5052701;28;11033;-86
2023/07/22 01:30:01;;;;;;;;;9.00;7.25;;;;;;;;5054033;28;10463;-86
2023/07/22 01:32:28;;;;;;;;;5.75;5.75;;;;;;;;5056995;28;10242;-84
2023/07/22 01:34:56;;;;;;;;;9.00;9.00;;;;;;;;5055797;28;10261;-89
2023/07/22 01:37:26;;;;;;;;;3.00;3.00;;;;;;;;5054624;28;10395;-87
2023/07/22 01:39:57;;;;;;;;;10.00;6.50;;;;;;;;5053348;28;10383;-87
2023/07/22 01:42:25;;;;;;;;;7.75;7.75;;;;;;;;5052884;28;10245;-87
2023/07/22 01:44:53;;;;;;;;;8.00;5.75;;;;;;;;5052667;28;10236;-88
2023/07/22 01:47:21;;;;;;;;;7.00;5.50;;;;;;;;5052346;28;10375;-87
2023/07/22 01:49:48;;;;;;;;;3.75;3.75;;;;;;;;5052220;28;10392;-88
2023/07/22 01:52:16;;;;;;;;;7.00;7.00;;;;;;;;5052571;28;10519;-89
2023/07/22 01:54:43;;;;;;;;;5.00;5.00;;;;;;;;5052123;28;10441;-86
2023/07/22 01:57:10;;;;;;;;;7.00;5.25;;;;;;;;5051742;28;10402;-86
2023/07/22 01:59:39;;;;;;;;;5.25;5.25;;;;;;;;5051220;28;10418;-84
2023/07/22 02:02:07;;;;;;;;;4.00;4.00;;;;;;;;5050780;28;10240;-85
2023/07/22 02:04:34;;;;;;;;;7.50;7.50;;;;;;;;5051729;28;10397;-85
2023/07/22 02:07:01;;;;;;;;;6.75;6.75;;;;;;;;5053571;28;10397;-85
2023/07/22 02:09:28;;;;;;;;;8.00;8.00;;;;;;;;5055892;28;10394;-82
2023/07/22 02:11:58;;;;;;;;;8.00;6.75;;;;;;;;5053997;28;10358;-84
2023/07/22 02:14:26;;;;;;;;;12.75;8.25;;;;;;;;5052546;28;10482;-83
2023/07/22 02:16:54;;;;;;;;;5.00;5.00;;;;;;;;5052223;28;10523;-83
2023/07/22 02:19:22;;;;;;;;;7.75;7.50;;;;;;;;5052199;28;10407;-83
2023/07/22 02:21:49;;;;;;;;;7.75;7.75;;;;;;;;5051682;28;10587;-82
2023/07/22 02:24:17;;;;;;;;;8.25;8.25;;;;;;;;5053769;28;10523;-82
2023/07/22 02:26:52;;;;;;;;;9.25;7.25;;;;;;;;5055509;28;10514;-83
2023/07/22 02:29:19;;;;;;;;;5.00;5.00;;;;;;;;5055137;28;10529;-83
2023/07/22 02:31:47;;;;;;;;;8.75;6.75;;;;;;;;5054115;28;10564;-83
2023/07/22 02:34:18;;;;;;;;;5.50;5.25;;;;;;;;5053037;28;10623;-84
2023/07/22 02:36:45;;;;;;;;;5.75;5.75;;;;;;;;5050903;28;10708;-87
2023/07/22 02:39:13;;;;;;;;;8.25;6.50;;;;;;;;5050930;28;10760;-84
2023/07/22 02:41:41;;;;;;;;;10.75;6.75;;;;;;;;5050684;28;10670;-85
2023/07/22 02:44:08;;;;;;;;;7.25;5.50;;;;;;;;5054906;28;10672;-82
2023/07/22 02:46:36;;;;;;;;;4.00;4.00;;;;;;;;5053776;28;10767;-83
2023/07/22 02:49:03;;;;;;;;;7.50;7.50;;;;;;;;5052673;28;10868;-83
2023/07/22 02:51:32;;;;;;;;;6.25;6.25;;;;;;;;5050790;28;11500;-83
2023/07/22 02:53:59;;;;;;;;;5.75;5.75;;;;;;;;5050855;28;10745;-81
2023/07/22 02:56:26;;;;;;;;;13.75;10.75;;;;;;;;5051113;28;10751;-87
2023/07/22 02:58:53;;;;;;;;;8.50;8.50;;;;;;;;5050304;28;11600;-85
2023/07/22 03:01:21;;;;;;;;;5.75;5.75;;;;;;;;5049598;28;10683;-84
2023/07/22 03:03:48;;;;;;;;;9.50;7.50;;;;;;;;5050348;28;10794;-82
2023/07/22 03:06:16;;;;;;;;;8.00;8.00;;;;;;;;5050316;28;10813;-83
2023/07/22 03:08:48;;;;;;;;;6.75;5.75;;;;;;;;5050291;28;10849;-83
2023/07/22 03:11:15;;;;;;;;;9.75;9.75;;;;;;;;5050355;28;10910;-87
2023/07/22 03:13:43;;;;;;;;;9.50;9.50;;;;;;;;5050431;28;10954;-82
2023/07/22 03:16:15;;;;;;;;;9.75;9.75;;;;;;;;5050003;28;10911;-87
2023/07/22 03:18:45;;;;;;;;;7.00;6.00;;;;;;;;5051600;28;10908;-85
2023/07/22 03:21:12;;;;;;;;;2.00;2.00;;;;;;;;5053871;28;10679;-81
2023/07/22 03:23:40;;;;;;;;;7.50;7.00;;;;;;;;5052789;28;10817;-82
2023/07/22 03:26:08;;;;;;;;;5.25;3.50;;;;;;;;5053411;28;10823;-82
2023/07/22 03:28:39;;;;;;;;;8.25;8.25;;;;;;;;5052832;28;11596;-83
2023/07/22 03:31:08;;;;;;;;;5.75;5.75;;;;;;;;5051340;28;10826;-83
2023/07/22 03:33:38;;;;;;;;;8.50;8.50;;;;;;;;5051077;28;10937;-84
2023/07/22 03:36:06;;;;;;;;;7.25;7.25;;;;;;;;5048753;28;10878;-84
2023/07/22 03:38:34;;;;;;;;;9.50;8.50;;;;;;;;5050413;28;11702;-84
2023/07/22 03:41:01;;;;;;;;;9.00;6.75;;;;;;;;5050585;28;10975;-85
2023/07/22 03:43:30;;;;;;;;;9.75;9.75;;;;;;;;5050633;28;10937;-84
2023/07/22 03:45:57;;;;;;;;;8.00;7.50;;;;;;;;5050361;28;10830;-82
2023/07/22 03:48:24;;;;;;;;;10.00;6.00;;;;;;;;5048706;28;10852;-83
2023/07/22 03:50:51;;;;;;;;;9.25;6.25;;;;;;;;5049522;28;10834;-82
2023/07/22 03:53:19;;;;;;;;;5.25;5.00;;;;;;;;5049874;28;10960;-81
2023/07/22 03:55:46;;;;;;;;;4.25;4.25;;;;;;;;5052431;28;10799;-84
2023/07/22 03:58:14;;;;;;;;;6.00;4.50;;;;;;;;5052352;28;10909;-81
2023/07/22 04:00:49;;;;;;;;;11.00;9.00;;;;;;;;5050606;28;10838;-82
2023/07/22 04:03:18;;;;;;;;;8.50;5.75;;;;;;;;5050688;28;10805;-83
2023/07/22 04:05:46;;;;;;;;;8.50;8.50;;;;;;;;5051763;28;11036;-83
2023/07/22 04:08:13;;;;;;;;;10.00;7.25;;;;;;;;5050140;28;10911;-84
2023/07/22 04:10:40;;;;;;;;;8.50;8.50;;;;;;;;5051710;28;10806;-85
2023/07/22 04:13:08;;;;;;;;;6.00;6.00;;;;;;;;5052682;28;10887;-82
2023/07/22 04:15:35;;;;;;;;;9.25;8.25;;;;;;;;5052973;28;10829;-82
2023/07/22 04:18:04;;;;;;;;;7.50;6.00;;;;;;;;5053391;28;10969;-86
2023/07/22 04:20:31;;;;;;;;;5.50;5.25;;;;;;;;5053124;28;10940;-87
2023/07/22 04:22:58;;;;;;;;;5.25;5.25;;;;;;;;5053507;28;10900;-85
2023/07/22 04:25:29;;;;;;;;;7.00;6.75;;;;;;;;5053585;28;10902;-87
2023/07/22 04:27:57;;;;;;;;;8.75;8.50;;;;;;;;5052790;28;11570;-85
2023/07/22 04:30:24;;;;;;;;;9.75;7.50;;;;;;;;5055102;28;10782;-83
2023/07/22 04:32:52;;;;;;;;;10.75;7.25;;;;;;;;5057221;28;10869;-87
2023/07/22 04:35:23;;;;;;;;;5.75;5.75;;;;;;;;5054303;28;10858;-84
2023/07/22 04:37:51;;;;;;;;;10.25;7.25;;;;;;;;5053984;28;10835;-87
2023/07/22 04:40:18;;;;;;;;;8.25;8.25;;;;;;;;5052709;28;11770;-84
2023/07/22 04:42:46;;;;;;;;;7.75;6.00;;;;;;;;5052677;28;10911;-84
2023/07/22 04:45:13;;;;;;;;;10.00;9.75;;;;;;;;5052678;28;10912;-85
2023/07/22 04:47:41;;;;;;;;;10.00;9.75;;;;;;;;5053125;28;10910;-84
2023/07/22 04:50:09;;;;;;;;;6.75;6.75;;;;;;;;5051863;28;11313;-82
2023/07/22 04:52:38;;;;;;;;;8.75;8.75;;;;;;;;5052274;28;10989;-80
2023/07/22 04:55:08;;;;;;;;;10.00;10.00;;;;;;;;5051438;28;10912;-79
2023/07/22 04:57:36;;;;;;;;;6.25;6.25;;;;;;;;5051638;28;10817;-79
2023/07/22 05:00:04;;;;;;;;;8.25;6.00;;;;;;;;5051793;28;10836;-80
2023/07/22 05:02:31;;;;;;;;;11.50;7.00;;;;;;;;5059224;28;10712;-85
2023/07/22 05:04:59;;;;;;;;;5.00;5.00;;;;;;;;5053393;28;10766;-83
2023/07/22 05:07:26;;;;;;;;;7.75;7.75;;;;;;;;5056584;28;10618;-85
2023/07/22 05:09:55;;;;;;;;;7.50;7.50;;;;;;;;5056462;28;10513;-85
2023/07/22 05:12:22;;;;;;;;;8.00;8.00;;;;;;;;5056483;28;10583;-88
2023/07/22 05:14:50;;;;;;;;;8.75;7.25;;;;;;;;5052500;28;10710;-86
2023/07/22 05:17:17;;;;;;;;;11.00;8.75;;;;;;;;5052521;28;10693;-85
2023/07/22 05:19:48;;;;;;;;;10.50;8.75;;;;;;;;5052237;28;10544;-84
2023/07/22 05:22:16;;;;;;;;;8.75;8.75;;;;;;;;5052182;28;10624;-82
2023/07/22 05:24:43;;;;;;;;;7.75;7.75;;;;;;;;5051736;28;11336;-82
2023/07/22 05:27:12;;;;;;;;;8.75;8.75;;;;;;;;5050801;28;10465;-82
2023/07/22 05:29:39;;;;;;;;;8.25;8.25;;;;;;;;5053016;28;10426;-82
2023/07/22 05:32:08;;;;;;;;;9.00;7.50;;;;;;;;5052942;28;10532;-82
2023/07/22 05:34:35;;;;;;;;;7.75;7.75;;;;;;;;5052196;28;10345;-83
2023/07/22 05:37:02;;;;;;;;;9.50;9.50;;;;;;;;5052684;28;10164;-84
2023/07/22 05:39:29;;;;;;;;;10.75;9.00;;;;;;;;5052576;28;10249;-86
2023/07/22 05:41:57;;;;;;;;;6.75;6.75;;;;;;;;5054062;28;10159;-85
2023/07/22 05:44:25;;;;;;;;;8.00;7.00;;;;;;;;5055930;28;9948;-85
2023/07/22 05:46:52;;;;;;;;;9.25;9.25;;;;;;;;5055085;28;10119;-86
2023/07/22 05:49:20;;;;;;;;;8.50;8.50;;;;;;;;5055030;28;10015;-86
2023/07/22 05:51:49;;;;;;;;;13.75;11.75;;;;;;;;5051769;28;10182;-81
2023/07/22 05:54:16;;;;;;;;;10.50;9.00;;;;;;;;5050624;28;9961;-80
2023/07/22 05:56:44;;;;;;;;;10.75;10.75;;;;;;;;5050776;28;9789;-78
2023/07/22 05:59:11;;;;;;;;;13.25;12.50;;;;;;;;5050275;28;9786;-80
2023/07/22 06:01:40;;;;;;;;;9.00;7.25;;;;;;;;5050255;28;9993;-80
2023/07/22 06:04:08;;;;;;;;;12.50;7.75;;;;;;;;5050855;28;9839;-78
2023/07/22 06:06:36;;;;;;;;;9.25;9.25;;;;;;;;5050988;28;9695;-80
2023/07/22 06:09:03;;;;;;;;;9.50;9.50;;;;;;;;5050246;28;9689;-81
2023/07/22 06:11:31;;;;;;;;;8.25;8.25;;;;;;;;5050593;28;9415;-82
2023/07/22 06:13:58;;;;;;;;;11.00;11.00;;;;;;;;5050248;28;9473;-79
2023/07/22 06:16:25;;;;;;;;;9.67;9.67;;;;;;;;5051494;28;9328;-79
2023/07/22 06:18:54;;;;;;;;;9.00;9.00;;;;;;;;5052243;28;9504;-83
2023/07/22 06:21:21;;;;;;;;;11.67;10.00;;;;;;;;5051004;28;9398;-80
2023/07/22 06:23:48;;;;;;;;;13.00;9.67;;;;;;;;5050453;28;9354;-79
2023/07/22 06:26:16;;;;;;;;;11.67;11.67;;;;;;;;5050824;28;9182;-77
2023/07/22 06:28:45;;;;;;;;;9.00;9.00;;;;;;;;5050593;28;9419;-78
2023/07/22 06:31:13;;;;;;;;;10.00;9.33;;;;;;;;5050097;28;9042;-81
2023/07/22 06:33:40;;;;;;;;;14.00;10.67;;;;;;;;5048947;28;9121;-75
2023/07/22 06:36:09;;;;;;;;;9.67;9.00;;;;;;;;5049723;28;9193;-75
2023/07/22 06:38:36;;;;;;;;;11.33;11.33;;;;;;;;5050002;28;9291;-76
2023/07/22 06:41:03;;;;;;;;;11.50;10.00;;;;;;;;5049401;28;8919;-77
2023/07/22 06:43:30;;;;;;;;;11.67;10.00;;;;;;;;5050201;28;9282;-78
2023/07/22 06:45:57;;;;;;;;;7.75;7.75;;;;;;;;5051069;28;8983;-77
2023/07/22 06:48:25;;;;;;;;;9.25;9.25;;;;;;;;5053921;28;9013;-75
2023/07/22 06:50:52;;;;;;;;;11.00;11.00;;;;;;;;5050808;28;8847;-78
2023/07/22 06:53:21;;;;;;;;;11.00;9.75;;;;;;;;5050003;28;8843;-80
2023/07/22 06:55:52;;;;;;;;;10.00;10.00;;;;;;;;5049269;28;8880;-74
2023/07/22 06:58:19;;;;;;;;;9.25;9.25;;;;;;;;5049653;28;9649;-77
2023/07/22 07:00:47;;;;;;;;;9.00;9.00;;;;;;;;5049000;28;8829;-80
2023/07/22 07:03:14;;;;;;;;;11.00;9.75;;;;;;;;5049364;28;8907;-79
2023/07/22 07:05:42;;;;;;;;;10.50;8.00;;;;;;;;5049578;28;8944;-77
2023/07/22 07:08:10;;;;;;;;;10.25;10.25;;;;;;;;5049129;28;9630;-81
2023/07/22 07:10:40;;;;;;;;;11.50;11.50;;;;;;;;5049926;28;8928;-81
2023/07/22 07:13:07;;;;;;;;;10.50;9.75;;;;;;;;5050592;28;8862;-81
2023/07/22 07:15:36;;;;;;;;;10.00;10.00;;;;;;;;5050763;28;9493;-80
2023/07/22 07:18:05;;;;;;;;;6.75;6.75;;;;;;;;5051564;28;8855;-82
2023/07/22 07:20:32;;;;;;;;;9.00;7.00;;;;;;;;5053365;28;8855;-83
2023/07/22 07:22:59;;;;;;;;;5.00;5.00;;;;;;;;5053735;28;8881;-84
2023/07/22 07:25:26;;;;;;;;;9.25;7.75;;;;;;;;5053087;28;8978;-79
2023/07/22 07:27:55;;;;;;;;;7.00;5.75;;;;;;;;5051611;28;8843;-79
2023/07/22 07:30:22;;;;;;;;;5.50;5.50;;;;;;;;5049695;28;8717;-80
2023/07/22 07:32:50;;;;;;;;;8.00;8.00;;;;;;;;5049286;28;8851;-80
2023/07/22 07:35:17;;;;;;;;;8.75;7.00;;;;;;;;5049235;28;8847;-79
2023/07/22 07:37:44;;;;;;;;;9.00;7.25;;;;;;;;5049021;28;8867;-79
2023/07/22 07:40:15;;;;;;;;;10.75;9.00;;;;;;;;5049319;28;8863;-81
2023/07/22 07:42:45;;;;;;;;;8.75;7.00;;;;;;;;5049454;28;8877;-79
2023/07/22 07:45:16;;;;;;;;;7.75;7.75;;;;;;;;5052875;28;8857;-78
2023/07/22 07:47:43;;;;;;;;;6.75;6.75;;;;;;;;5053460;28;8873;-79
2023/07/22 07:50:11;;;;;;;;;7.00;6.00;;;;;;;;5053018;28;8866;-79
2023/07/22 07:52:39;;;;;;;;;3.25;3.25;;;;;;;;5052984;28;8904;-81
2023/07/22 07:55:07;;;;;;;;;6.25;5.50;;;;;;;;5052519;28;8975;-79
2023/07/22 07:57:35;;;;;;;;;5.75;5.00;;;;;;;;5052867;28;8855;-78
2023/07/22 08:00:03;;;;;;;;;4.25;4.25;;;;;;;;5052863;28;8859;-78
2023/07/22 08:02:31;;;;;;;;;4.75;4.75;;;;;;;;5052946;28;8787;-76
2023/07/22 08:04:59;;;;;;;;;4.75;4.75;;;;;;;;5052600;28;8862;-79
2023/07/22 08:07:26;;;;;;;;;5.50;5.25;;;;;;;;5053035;28;8862;-83
2023/07/22 08:09:53;;;;;;;;;4.75;4.75;;;;;;;;5053385;28;8862;-83
2023/07/22 08:12:20;;;;;;;;;4.25;3.75;;;;;;;;5052744;28;8851;-82
2023/07/22 08:14:48;;;;;;;;;7.75;6.25;;;;;;;;5053210;28;8859;-82
2023/07/22 08:17:15;;;;;;;;;3.25;3.25;;;;;;;;5053474;28;8879;-81
2023/07/22 08:19:44;;;;;;;;;5.25;5.25;;;;;;;;5053240;28;8859;-83
2023/07/22 08:22:11;;;;;;;;;5.50;5.50;;;;;;;;5052815;28;8855;-81
2023/07/22 08:24:38;;;;;;;;;7.75;5.75;;;;;;;;5052815;28;8851;-81
2023/07/22 08:27:06;;;;;;;;;5.50;4.00;;;;;;;;5052882;28;8866;-81
2023/07/22 08:29:33;;;;;;;;;4.75;4.75;;;;;;;;5052996;28;8873;-82
2023/07/22 08:32:01;;;;;;;;;5.50;5.00;;;;;;;;5052231;28;8833;-85
2023/07/22 08:34:28;;;;;;;;;5.75;5.75;;;;;;;;5052969;28;9735;-81
2023/07/22 08:36:57;;;;;;;;;6.50;6.50;;;;;;;;5054500;28;8871;-84
2023/07/22 08:39:24;;;;;;;;;6.25;6.25;;;;;;;;5058645;28;8851;-89
2023/07/22 08:41:51;;;;;;;;;7.25;6.00;;;;;;;;5055575;28;8965;-83
2023/07/22 08:44:21;;;;;;;;;5.00;5.00;;;;;;;;5053577;28;8890;-80
2023/07/22 08:46:49;;;;;;;;;6.00;6.00;;;;;;;;5053326;28;8870;-82
2023/07/22 08:49:16;;;;;;;;;5.75;5.75;;;;;;;;5053281;28;8898;-87
2023/07/22 08:51:45;;;;;;;;;7.75;6.25;;;;;;;;5053591;28;9001;-87
2023/07/22 08:54:15;;;;;;;;;5.75;5.75;;;;;;;;5052844;28;8883;-86
2023/07/22 08:56:44;;;;;;;;;6.25;6.25;;;;;;;;5054242;28;8866;-86
2023/07/22 08:59:11;;;;;;;;;3.75;2.50;;;;;;;;5054426;28;8851;-84
2023/07/22 09:01:39;;;;;;;;;4.50;3.75;;;;;;;;5053117;28;8799;-87
2023/07/22 09:04:06;;;;;;;;;5.50;5.50;;;;;;;;5053281;28;8851;-83
2023/07/22 09:06:35;;;;;;;;;5.00;5.00;;;;;;;;5053161;28;8851;-81
2023/07/22 09:09:07;;;;;;;;;5.00;5.00;;;;;;;;5052453;28;8858;-85
2023/07/22 09:11:36;;;;;;;;;4.00;4.00;;;;;;;;5052051;28;8973;-80
2023/07/22 09:14:04;;;;;;;;;8.00;4.75;;;;;;;;5051645;28;8843;-83
2023/07/22 09:16:32;;;;;;;;;6.00;6.00;;;;;;;;5052187;28;8924;-76
2023/07/22 09:18:59;;;;;;;;;6.75;6.00;;;;;;;;5051753;28;8851;-86
2023/07/22 09:21:27;;;;;;;;;4.25;4.00;;;;;;;;5051609;28;8863;-81
2023/07/22 09:23:55;;;;;;;;;5.00;5.00;;;;;;;;5051342;28;9058;-83
2023/07/22 09:26:22;;;;;;;;;6.25;6.25;;;;;;;;5051386;28;8892;-81
2023/07/22 09:28:55;;;;;;;;;4.20;3.60;;;;;;;;5051297;28;8985;-83
2023/07/22 09:31:23;;;;;;;;;6.25;6.25;;;;;;;;5051076;28;8882;-81
2023/07/22 09:33:51;;;;;;;;;5.50;4.50;;;;;;;;5052975;28;8867;-83
2023/07/22 09:36:18;;;;;;;;;4.20;4.20;;;;;;;;5052218;28;8855;-80
2023/07/22 09:39:00;;;;;;;;;6.00;4.50;;;;;;;;5051623;28;9661;-83
2023/07/22 09:41:29;;;;;;;;;8.00;6.25;;;;;;;;5051152;28;8875;-80
2023/07/22 09:43:58;;;;;;;;;5.00;5.00;;;;;;;;5051378;28;8867;-82
2023/07/22 09:46:33;;;;;;;;;4.40;4.40;;;;;;;;5051456;28;8900;-83
2023/07/22 09:49:05;;;;;;;;;4.60;3.60;;;;;;;;5051166;28;8878;-83
2023/07/22 09:51:35;;;;;;;;;6.40;5.20;;;;;;;;5051695;28;8847;-80
2023/07/22 09:54:04;;;;;;;;;5.00;5.00;;;;;;;;5053070;28;8867;-84
2023/07/22 09:56:31;;;;;;;;;5.00;5.00;;;;;;;;5053254;28;8898;-83
2023/07/22 09:59:00;;;;;;;;;5.80;5.80;;;;;;;;5053935;28;8974;-80
2023/07/22 10:01:28;;;;;;;;;6.80;6.80;;;;;;;;5052512;28;8801;-81
2023/07/22 10:03:56;;;;;;;;;2.80;2.80;;;;;;;;5051126;28;8865;-81
2023/07/22 10:06:27;;;;;;;;;4.60;4.60;;;;;;;;5050742;28;9638;-80
2023/07/22 10:08:57;;;;;;;;;5.00;5.00;;;;;;;;5049993;28;8861;-80
2023/07/22 10:11:24;;;;;;;;;3.60;3.60;;;;;;;;5050527;28;8965;-81
2023/07/22 10:13:52;;;;;;;;;4.00;4.00;;;;;;;;5050280;28;8823;-81
2023/07/22 10:16:20;;;;;;;;;2.20;2.20;;;;;;;;5050819;28;8961;-82
2023/07/22 10:18:49;;;;;;;;;3.00;2.60;;;;;;;;5050617;28;8873;-84
2023/07/22 10:21:16;;;;;;;;;1.00;1.00;;;;;;;;5050791;28;8867;-81
2023/07/22 10:23:47;;;;;;;;;5.00;3.20;;;;;;;;5050361;28;8877;-82
2023/07/22 10:26:17;;;;;;;;;2.20;2.20;;;;;;;;5051465;28;8847;-81
2023/07/22 10:28:46;;;;;;;;;3.20;3.20;;;;;;;;5052452;28;8873;-85
2023/07/22 10:31:18;;;;;;;;;3.00;3.00;;;;;;;;5054277;28;8775;-82
2023/07/22 10:33:49;;;;;;;;;0.00;0.00;;;;;;;;5054359;28;8871;-82
2023/07/22 10:36:18;;;;;;;;;2.80;2.80;;;;;;;;5054871;28;8989;-83
2023/07/22 10:38:56;;;;;;;;;2.40;2.40;;;;;;;;5053364;28;8855;-83
2023/07/22 10:41:23;;;;;;;;;2.00;2.00;;;;;;;;5050886;28;8855;-81
2023/07/22 10:43:56;;;;;;;;;1.80;1.80;;;;;;;;5050936;28;8973;-84
2023/07/22 10:46:33;;;;;;;;;2.80;2.80;;;;;;;;5050835;28;8846;-84
2023/07/22 10:49:11;;;;;;;;;3.00;3.00;;;;;;;;5049985;28;8866;-86
2023/07/22 10:51:39;;;;;;;;;3.00;2.40;;;;;;;;5050000;28;8867;-82
2023/07/22 10:54:12;;;;;;;;;2.20;2.20;;;;;;;;5049973;28;8873;-83
2023/07/22 10:56:43;;;;;;;;;0.80;0.80;;;;;;;;5050308;28;8988;-84
2023/07/22 10:59:12;;;;;;;;;1.80;1.80;;;;;;;;5049754;28;8843;-84
2023/07/22 11:01:39;;;;;;;;;2.40;2.00;;;;;;;;5049470;28;8901;-84
2023/07/22 11:04:30;;;;;;;;;3.20;2.20;;;;;;;;5049482;28;8854;-82
2023/07/22 11:06:59;;;;;;;;;1.20;1.20;;;;;;;;5050406;28;8956;-81
2023/07/22 11:09:35;;;;;;;;;1.00;1.00;;;;;;;;5050760;28;8839;-83
2023/07/22 11:12:04;;;;;;;;;0.80;0.80;;;;;;;;5049520;28;8859;-80
2023/07/22 11:14:33;;;;;;;;;3.60;1.80;;;;;;;;5049866;28;8831;-80
2023/07/22 11:17:03;;;;;;;;;1.80;1.80;;;;;;;;5049602;28;8868;-80
2023/07/22 11:19:33;;;;;;;;;1.80;1.80;;;;;;;;5049277;28;8867;-81
2023/07/22 11:22:01;;;;;;;;;1.00;1.00;;;;;;;;5049839;28;8873;-82
2023/07/22 11:24:28;;;;;;;;;2.80;1.60;;;;;;;;5049619;28;9037;-78
2023/07/22 11:26:56;;;;;;;;;1.00;1.00;;;;;;;;5049677;28;8981;-85
2023/07/22 11:29:24;;;;;;;;;0.60;0.60;;;;;;;;5050533;28;8851;-81
2023/07/22 11:31:52;;;;;;;;;1.60;1.60;;;;;;;;5050311;28;8805;-84
2023/07/22 11:34:21;;;;;;;;;0.80;0.80;;;;;;;;5052049;28;8874;-83
2023/07/22 11:36:52;;;;;;;;;1.00;1.00;;;;;;;;5049849;28;8944;-82
2023/07/22 11:39:20;;;;;;;;;1.20;1.20;;;;;;;;5050151;28;8961;-82
2023/07/22 11:41:49;;;;;;;;;2.00;1.20;;;;;;;;5050514;28;8878;-79
2023/07/22 11:44:20;;;;;;;;;1.40;1.40;;;;;;;;5050882;28;8982;-92
2023/07/22 11:46:53;;;;;;;;;0.80;0.80;;;;;;;;5049802;28;8870;-84
2023/07/22 11:49:25;;;;;;;;;0.80;0.80;;;;;;;;5049240;28;8867;-84
2023/07/22 11:51:56;;;;;;;;;1.20;1.20;;;;;;;;5049452;28;8851;-80
2023/07/22 11:54:24;;;;;;;;;0.60;0.20;;;;;;;;5049532;28;8859;-82
2023/07/22 11:56:51;;;;;;;;;1.00;1.00;;;;;;;;5049299;28;8863;-83
2023/07/22 11:59:18;;;;;;;;;0.20;0.20;;;;;;;;5049111;28;8866;-81
2023/07/22 12:01:47;;;;;;;;;0.20;0.20;;;;;;;;5048524;28;8989;-82
2023/07/22 12:04:15;;;;;;;;;2.80;1.20;;;;;;;;5049735;28;8871;-83
2023/07/22 12:06:42;;;;;;;;;1.00;1.00;;;;;;;;5049820;28;8839;-83
2023/07/22 12:09:11;;;;;;;;;0.20;0.20;;;;;;;;5049937;28;8839;-82
2023/07/22 12:11:39;;;;;;;;;0.20;0.20;;;;;;;;5050994;28;8892;-82
2023/07/22 12:14:10;;;;;;;;;0.20;0.20;;;;;;;;5050635;28;8839;-83
2023/07/22 12:16:38;;;;;;;;;0.20;0.20;;;;;;;;5050194;28;8867;-82
2023/07/22 12:19:06;;;;;;;;;1.20;1.20;;;;;;;;5049314;28;8862;-83
2023/07/22 12:21:33;;;;;;;;;0.20;0.20;;;;;;;;5049380;28;8885;-79
2023/07/22 12:24:01;;;;;;;;;1.20;1.20;;;;;;;;5048735;28;8878;-82
2023/07/22 12:26:29;;;;;;;;;0.60;0.60;;;;;;;;5048834;28;9024;-81
2023/07/22 12:28:57;;;;;;;;;1.20;0.00;;;;;;;;5048459;28;8962;-82
2023/07/22 12:31:24;;;;;;;;;1.20;0.00;;;;;;;;5050590;28;8802;-80
2023/07/22 12:33:51;;;;;;;;;0.20;0.20;;;;;;;;5052488;28;8863;-81
2023/07/22 12:36:19;;;;;;;;;0.20;0.20;;;;;;;;5052612;28;8863;-81
2023/07/22 12:38:46;;;;;;;;;1.20;1.20;;;;;;;;5052524;28;8839;-81
2023/07/22 12:41:16;;;;;;;;;1.00;1.00;;;;;;;;5052298;28;8866;-83
2023/07/22 12:43:45;;;;;;;;;1.20;1.20;;;;;;;;5052392;28;8855;-77
2023/07/22 12:46:12;;;;;;;;;0.80;0.80;;;;;;;;5052249;28;8889;-77
2023/07/22 12:48:39;;;;;;;;;3.80;2.60;;;;;;;;5052009;28;9001;-83
2023/07/22 12:51:09;;;;;;;;;0.20;0.20;;;;;;;;5053385;28;8963;-77
2023/07/22 12:53:36;;;;;;;;;0.60;0.60;;;;;;;;5053862;28;8855;-81
2023/07/22 12:56:05;;;;;;;;;1.80;0.80;;;;;;;;5052551;28;8989;-81
2023/07/22 12:58:33;;;;;;;;;0.00;0.00;;;;;;;;5051892;28;8855;-80
2023/07/22 13:01:01;;;;;;;;;0.20;0.20;;;;;;;;5051884;28;8807;-77
2023/07/22 13:03:28;;;;;;;;;0.60;0.60;;;;;;;;5052086;28;8889;-78
2023/07/22 13:05:57;;;;;;;;;2.80;1.20;;;;;;;;5051786;28;8847;-87
2023/07/22 13:08:24;;;;;;;;;0.00;0.00;;;;;;;;5051805;28;8850;-80
2023/07/22 13:10:51;;;;;;;;;0.20;0.20;;;;;;;;5051671;28;8863;-80
2023/07/22 13:13:19;;;;;;;;;0.00;0.00;;;;;;;;5051654;28;9746;-78
2023/07/22 13:15:47;;;;;;;;;1.20;1.20;;;;;;;;5054027;28;8962;-84
2023/07/22 13:18:16;;;;;;;;;0.00;0.00;;;;;;;;5053858;28;8879;-86
2023/07/22 13:20:44;;;;;;;;;0.60;0.00;;;;;;;;5052477;28;8869;-80
2023/07/22 13:23:11;;;;;;;;;0.00;0.00;;;;;;;;5051662;28;8942;-86
2023/07/22 13:25:38;;;;;;;;;0.00;0.00;;;;;;;;5051676;28;8901;-84
2023/07/22 13:28:06;;;;;;;;;1.20;1.20;;;;;;;;5051332;28;8866;-85
2023/07/22 13:30:33;;;;;;;;;2.20;2.00;;;;;;;;5051714;28;8902;-83
2023/07/22 13:33:00;;;;;;;;;3.00;1.20;;;;;;;;5051769;28;8873;-87
2023/07/22 13:35:30;;;;;;;;;3.80;2.60;;;;;;;;5052459;28;9009;-82
2023/07/22 13:37:57;;;;;;;;;1.80;1.80;;;;;;;;5055617;28;8863;-82
2023/07/22 13:40:24;;;;;;;;;6.40;2.80;;;;;;;;5054306;28;8982;-88
2023/07/22 13:42:51;;;;;;;;;2.00;2.00;;;;;;;;5054783;28;8924;-86
2023/07/22 13:45:19;;;;;;;;;3.20;0.40;;;;;;;;5054425;28;8863;-79
2023/07/22 13:47:46;;;;;;;;;0.40;0.40;;;;;;;;5054710;28;8851;-82
2023/07/22 13:50:16;;;;;;;;;2.40;1.20;;;;;;;;5055248;28;8843;-81
2023/07/22 13:52:45;;;;;;;;;0.40;0.40;;;;;;;;5054498;28;8863;-81
2023/07/22 13:55:12;;;;;;;;;1.00;1.00;;;;;;;;5052482;28;8881;-80
2023/07/22 13:57:39;;;;;;;;;0.40;0.40;;;;;;;;5051413;28;8893;-76
2023/07/22 14:00:10;;;;;;;;;0.20;0.20;;;;;;;;5050420;28;8859;-79
2023/07/22 14:02:39;;;;;;;;;1.00;1.00;;;;;;;;5050535;28;8873;-78
2023/07/22 14:05:07;;;;;;;;;0.00;0.00;;;;;;;;5050419;28;8859;-78
2023/07/22 14:07:37;;;;;;;;;0.00;0.00;;;;;;;;5050544;28;8859;-80
2023/07/22 14:10:08;;;;;;;;;0.00;0.00;;;;;;;;5051107;28;8847;-82
2023/07/22 14:12:35;;;;;;;;;0.80;0.80;;;;;;;;5051856;28;8924;-87
2023/07/22 14:15:05;;;;;;;;;1.00;0.20;;;;;;;;5054863;28;8969;-80
2023/07/22 14:17:33;;;;;;;;;0.00;0.00;;;;;;;;5052124;28;9668;-78
2023/07/22 14:20:00;;;;;;;;;0.20;0.20;;;;;;;;5050407;28;9652;-78
2023/07/22 14:22:27;;;;;;;;;0.20;0.20;;;;;;;;5050368;28;8867;-79
2023/07/22 14:24:56;;;;;;;;;1.00;1.00;;;;;;;;5050156;28;8851;-79
2023/07/22 14:27:24;;;;;;;;;0.00;0.00;;;;;;;;5050219;28;8889;-81
2023/07/22 14:29:52;;;;;;;;;1.00;1.00;;;;;;;;5050353;28;8881;-79
2023/07/22 14:32:19;;;;;;;;;2.20;0.40;;;;;;;;5049595;28;8810;-81
2023/07/22 14:34:46;;;;;;;;;0.00;0.00;;;;;;;;5050966;28;8859;-77
2023/07/22 14:37:14;;;;;;;;;2.00;2.00;;;;;;;;5050235;28;8870;-79
2023/07/22 14:39:41;;;;;;;;;1.00;1.00;;;;;;;;5050222;28;8863;-78
2023/07/22 14:42:08;;;;;;;;;1.00;1.00;;;;;;;;5049789;28;9687;-80
2023/07/22 14:44:37;;;;;;;;;0.60;0.60;;;;;;;;5050218;28;9009;-80
2023/07/22 14:47:05;;;;;;;;;0.20;0.20;;;;;;;;5050219;28;8869;-79
2023/07/22 14:49:32;;;;;;;;;1.00;1.00;;;;;;;;5050331;28;8859;-79
2023/07/22 14:51:59;;;;;;;;;0.60;0.60;;;;;;;;5051532;28;8973;-81
2023/07/22 14:54:26;;;;;;;;;1.40;0.00;;;;;;;;5054244;28;8855;-81
2023/07/22 14:56:53;;;;;;;;;1.00;1.00;;;;;;;;5054766;28;8989;-81